Station UQXA2 - Utquigvik, AK Image indicating link to RSS feed of recent meteorological observations for station UQXA2


Conditions at UQXA2 as of
(4:24 pm AKDT on 05/23/2024)
0024 GMT on 05/24/2024:
     

Click on the graph icon in the table below to see a time series plot of the last five days of that observation.

5-day plot - Wind Direction Wind Direction (WDIR):NNE ( 30 deg true )
5-day plot - Wind Speed Wind Speed (WSPD): 15 kts
5-day plot - Wind Gust Wind Gust (GST): 21 kts
5-day plot - Air Temperature Air Temperature (ATMP): 26.6 °F
5-day plot - Dew Point Dew Point (DEWP): 24.8 °F
5-day plot - Wind Chill Wind Chill (CHILL): 13.8 °F
5-day plot - Wind Speed at 10 Meters Wind Speed at 10 meters (WSPD10M): 14 kts
5-day plot - Wind Speed at 20 Meters Wind Speed at 20 meters (WSPD20M): 16 kts
5-day plot -  Wind Speed, Wind Gust and Atmospheric Pressure Combined plot of Wind Speed, Gust, and Air Pressure
Previous observations
TIME
(AKDT)
5-day plot - Wind Direction
WDIR
 
5-day plot - Wind Speed
WSPD
kts
5-day plot - Wind Gust
GST
kts
5-day plot - Wave Height
WVHT
ft
5-day plot - Dominant Wave Period
DPD
sec
5-day plot - Average Wave Period
APD
sec
5-day plot - Mean Wave Direction
MWD
 
5-day plot - Atmospheric Pressure
PRES
in
5-day plot - Pressure Tendency
PTDY
in
5-day plot - Air Temperature
ATMP
°F
5-day plot - Water Temperature
WTMP
°F
5-day plot - Dew Point
DEWP
°F
5-day plot - Salinity
SAL
psu
5-day plot - Visibility
VIS
nmi
5-day plot - Tide (above MLLW)
TIDE
ft
2024-05-23 04:13 pm NE 14 19------ 26.8- 24.8---
2024-05-23 03:54 pm NE 14 20------ 27.0- 25.2---
2024-05-23 03:43 pm NE 15 21------ 27.0- 25.3---
2024-05-23 03:33 pmNNE 16 21------ 26.8- 25.5---
2024-05-23 03:23 pm NE 15 20------ 27.0- 25.9---
2024-05-23 03:13 pm NE 14 19------ 27.0- 26.2---
2024-05-23 03:04 pm NE 13 18------ 27.0- 26.2---
2024-05-23 02:53 pm NE 14 19------ 26.8- 25.9---
2024-05-23 02:43 pm NE 14 20------ 26.8- 25.9---
2024-05-23 02:34 pm NE 15 21------ 26.6- 25.5---
2024-05-23 02:24 pm NE 16 22------ 26.4- 25.5---
2024-05-23 02:13 pm NE 15 21------ 26.4- 25.5---
2024-05-23 02:04 pm NE 15 20------ 26.2- 25.3---
2024-05-23 01:53 pm NE 15 21------ 26.1- 25.3---
2024-05-23 01:44 pm NE 16 23------ 25.9- 25.2---
2024-05-23 01:34 pmNNE 15 21------ 25.9- 25.3---
2024-05-23 01:23 pmNNE 15 19------ 25.7- 25.2---
2024-05-23 01:13 pmNNE 16 21------ 25.5- 25.2---
2024-05-23 01:04 pmNNE 16 21------ 25.5- 25.3---
2024-05-23 12:53 pmNNE 16 22------ 25.3- 25.2---
2024-05-23 12:43 pm NE 16 21------ 25.3- 25.3---
2024-05-23 12:34 pm NE 15 22------ 25.2- 25.2---
2024-05-23 12:23 pm NE 15 20------ 25.2- 25.2---
2024-05-23 12:13 pm NE 14 20------ 25.2- 25.2---
2024-05-23 12:04 pmNNE 15 20------ 24.4- 24.4---
2024-05-23 11:54 amNNE 15 20------ 24.4- 24.4---
2024-05-23 11:44 amNNE 15 22------ 24.3- 24.3---
2024-05-23 11:34 amNNE 13 19------ 24.4- 24.4---
2024-05-23 11:24 amNNE 13 17------ 24.3- 24.3---
2024-05-23 11:13 amNNE 14 18------ 24.1- 24.1---
2024-05-23 11:03 am NE 15 20------ 24.3- 24.3---
2024-05-23 10:53 am NE 16 21------ 23.7- 23.7---
2024-05-23 10:43 amNNE 14 21------ 23.9- 23.9---
2024-05-23 10:33 amNNE 16 23------ 23.7- 23.7---
2024-05-23 10:23 amNNE 13 19------ 23.7- 23.7---
2024-05-23 10:13 amNNE 12 18------ 23.7- 23.7---
2024-05-23 10:03 amNNE 13 19------ 23.7- 23.7---
2024-05-23 09:54 amNNE 13 19------ 23.7- 23.7---
2024-05-23 09:44 amNNE 15 20------ 24.1- 24.1---
2024-05-23 09:33 am NE 15 21------ 24.3- 24.3---
2024-05-23 09:24 am NE 14 18------ 24.3- 24.3---
2024-05-23 09:13 am NE 15 21------ 24.1- 24.1---
2024-05-23 09:04 am NE 15 20------ 24.1- 24.1---
2024-05-23 08:54 am NE 15 20------ 23.7- 23.7---
2024-05-23 08:44 am NE 13 19------ 23.7- 23.7---
2024-05-23 08:34 am NE 15 19------ 23.5- 23.5---
2024-05-23 08:24 am NE 12 18------ 23.7- 23.7---
2024-05-23 08:14 amNNE 14 18------ 23.4- 23.4---
2024-05-23 08:04 amNNE 12 19------ 23.7- 23.7---
2024-05-23 07:53 amNNE 11 17------ 23.4- 23.4---
2024-05-23 07:44 amNNE 12 17------ 23.7- 23.7---
2024-05-23 07:34 amNNE 12 18------ 24.1- 24.1---
2024-05-23 07:23 amNNE 14 20------ 24.3- 24.3---
2024-05-23 07:14 amNNE 14 18------ 24.4- 24.4---
2024-05-23 07:04 amNNE 12 19------ 24.8- 24.8---
2024-05-23 06:53 amNNE 11 16------ 24.8- 24.8---
2024-05-23 06:44 amNNE 11 17------ 24.6- 24.6---
2024-05-23 06:33 amNNE 11 16------ 24.4- 24.4---
2024-05-23 06:23 amNNE 10 15------ 24.3- 24.3---
2024-05-23 06:13 amNNE 10 15------ 23.9- 23.9---
2024-05-23 06:03 amNNE 10 17------ 23.7- 23.7---
2024-05-23 05:54 amNNE 10 15------ 23.4- 23.4---
2024-05-23 05:44 amNNE 10 15------ 23.4- 23.4---
2024-05-23 05:34 am N 11 15------ 23.2- 23.2---
2024-05-23 05:23 amNNE 10 15------ 23.0- 23.0---
2024-05-23 05:13 amNNE 10 16------ 23.2- 23.2---
2024-05-23 05:03 amNNE 11 16------ 23.2- 23.2---
2024-05-23 04:54 amNNE 11 18------ 23.4- 23.4---
2024-05-23 04:43 amNNE 12 18------ 23.4- 23.4---
2024-05-23 04:33 amNNE 12 18------ 23.4- 23.4---
2024-05-23 04:24 amNNE 12 19------ 23.5- 23.5---
2024-05-23 04:13 amNNE 12 20------ 24.3- 24.3---
2024-05-23 04:03 amNNE 14 21------ 24.8- 24.8---
2024-05-23 03:54 amNNE 14 21------ 25.7- 25.7---
2024-05-23 03:43 amNNE 14 20------ 26.6- 26.6---
2024-05-23 03:33 amNNE 13 19------ 27.3- 27.3---
2024-05-23 03:23 amNNE 11 16------ 27.7- 27.7---
2024-05-23 03:13 amNNE 11 16------ 27.9- 27.9---
2024-05-23 03:03 amNNE 10 15------ 28.0- 28.0---
2024-05-23 02:53 amNNE 12 18------ 28.2- 28.2---
2024-05-23 02:43 amNNE 13 17------ 28.4- 28.4---
2024-05-23 02:34 am NE 15 20------ 28.4- 28.2---
2024-05-23 02:23 am NE 15 20------ 28.4- 28.4---
2024-05-23 02:18 am NE 15 19------ 28.4- 28.4---
2024-05-23 02:13 am NE 15 19------ 28.4- 28.4---
2024-05-23 01:53 am NE 14 18------ 28.4- 28.4---
2024-05-23 01:43 amNNE 13 17------ 28.4- 28.4---
2024-05-23 01:33 am NE 12 17------ 28.6- 28.6---
2024-05-23 01:23 am NE 14 20------ 28.8- 28.6---
2024-05-23 01:14 am NE 15 20------ 28.8- 28.8---
2024-05-23 01:03 am NE 14 19------ 28.9- 28.9---
2024-05-23 12:53 am NE 14 20------ 28.9- 28.9---
2024-05-23 12:43 am NE 14 20------ 28.9- 28.6---
2024-05-23 12:34 am NE 16 21------ 28.9- 28.8---
2024-05-23 12:23 amNNE 15 19------ 28.8- 28.8---
2024-05-23 12:14 amNNE 13 19------ 28.8- 28.8---
2024-05-23 12:03 amNNE 11 17------ 28.9- 28.9---
2024-05-22 11:54 pmNNE 12 18------ 29.1- 29.1---
2024-05-22 11:44 pm NE 15 21------ 29.1- 28.9---
2024-05-22 11:34 pm NE 15 20------ 28.9- 28.9---
2024-05-22 11:23 pm NE 15 21------ 29.1- 29.1---
2024-05-22 11:13 pm NE 14 21------ 28.9- 28.9---
2024-05-22 11:03 pmNNE 13 17------ 28.9- 28.9---
2024-05-22 10:53 pmNNE 13 19------ 29.1- 29.1---
2024-05-22 10:43 pmNNE 12 16------ 29.3- 29.3---
2024-05-22 10:33 pmNNE 13 19------ 29.3- 29.3---
2024-05-22 10:23 pmNNE 13 17------ 29.1- 29.1---
2024-05-22 10:14 pmNNE 14 20------ 28.9- 28.9---
2024-05-22 10:04 pmNNE 13 17------ 28.9- 28.9---
2024-05-22 09:54 pmNNE 13 17------ 28.9- 28.9---
2024-05-22 09:44 pm NE 14 21------ 28.9- 28.9---
2024-05-22 09:34 pmNNE 15 20------ 29.3- 28.9---
2024-05-22 09:24 pmNNE 16 21------ 29.5- 28.9---
2024-05-22 09:14 pmNNE 16 21------ 29.5- 29.5---
2024-05-22 09:04 pmNNE 15 21------ 29.8- 29.8---
2024-05-22 08:54 pmNNE 14 19------ 29.8- 29.8---
2024-05-22 08:44 pmNNE 15 20------ 30.0- 30.0---
2024-05-22 08:34 pmNNE 14 20------ 30.0- 29.8---
2024-05-22 08:24 pmNNE 16 22------ 30.2- 29.7---
2024-05-22 08:14 pmNNE 18 24------ 30.0- 29.5---
2024-05-22 08:03 pmNNE 17 24------ 29.8- 29.8---
2024-05-22 07:53 pmNNE 15 21------ 30.0- 30.0---
2024-05-22 07:44 pm NE 13 17------ 30.0- 30.0---
2024-05-22 07:33 pm NE 12 17------ 30.2- 30.2---
2024-05-22 07:23 pm NE 14 19------ 30.0- 29.8---
2024-05-22 07:14 pm NE 15 21------ 30.0- 29.8---
2024-05-22 07:03 pm NE 15 21------ 29.8- 29.8---
2024-05-22 06:53 pm NE 16 22------ 29.8- 29.8---
2024-05-22 06:44 pm NE 15 21------ 29.8- 29.8---
2024-05-22 06:33 pm NE 15 20------ 29.7- 29.7---
2024-05-22 06:23 pm NE 16 22------ 29.7- 29.7---
2024-05-22 06:13 pm NE 13 19------ 29.5- 29.5---
2024-05-22 06:04 pm NE 13 18------ 29.1- 29.1---
2024-05-22 05:54 pm NE 14 19------ 28.6- 28.6---
2024-05-22 05:43 pm NE 16 21------ 28.4- 28.4---
2024-05-22 05:34 pm NE 16 22------ 28.4- 28.4---
2024-05-22 05:23 pm NE 14 19------ 28.0- 28.0---
2024-05-22 05:13 pm NE 16 21------ 27.7- 27.7---
2024-05-22 05:04 pm NE 15 20------ 27.3- 27.1---
2024-05-22 04:53 pmNNE 15 20------ 27.5- 27.1---
2024-05-22 04:44 pmNNE 13 18------ 27.5- 27.3---
2024-05-22 04:33 pmNNE 12 19------ 27.7- 27.5---
2024-05-22 04:23 pmNNE 13 18------ 27.5- 27.5---
2024-05-22 04:13 pmNNE 13 18------ 27.3- 27.3---
2024-05-22 03:54 pmNNE 14 21------ 27.0- 27.0---